Time;durP1;ratioP1;P1;durP2;ratioP2;P2;SDS_P1;SDS_P2;PMS_P1;PMS_P2;Temp;Humidity;BMP_temperature;BMP_pressure;BME280_temperature;BME280_humidity;BME280_pressure;Samples;Min_cycle;Max_cycle;Signal;HPM_P1;HPM_P2
2022/02/05 00:02:41;;;;;;;9.93;7.40;;;3.40;99.90;;;;;;5094566;28;20440;-58
2022/02/05 00:05:14;;;;;;;8.17;7.37;;;3.40;99.90;;;;;;5094533;28;20435;-58
2022/02/05 00:07:50;;;;;;;9.93;6.50;;;3.40;99.90;;;;;;5094437;28;20529;-58
2022/02/05 00:10:57;;;;;;;11.17;7.27;;;3.40;99.90;;;;;;5094608;28;20496;-59
2022/02/05 00:16:12;;;;;;;8.87;7.57;;;3.40;99.90;;;;;;5093152;28;20477;-57
2022/02/05 00:38:24;;;;;;;10.20;7.93;;;3.40;99.90;;;;;;5073192;28;20504;-59
2022/02/05 00:40:57;;;;;;;11.27;8.40;;;3.50;99.90;;;;;;5083061;28;20436;-59
2022/02/05 00:43:25;;;;;;;13.37;8.50;;;3.40;99.90;;;;;;5093243;28;20465;-57
2022/02/05 00:45:56;;;;;;;10.40;8.50;;;3.40;99.90;;;;;;5089946;28;20464;-59
2022/02/05 00:48:24;;;;;;;14.20;8.97;;;3.40;99.90;;;;;;5079550;28;20876;-58
2022/02/05 00:50:55;;;;;;;13.13;8.67;;;3.50;99.90;;;;;;5079879;28;20471;-59
2022/02/05 00:53:31;;;;;;;12.00;8.07;;;3.50;99.90;;;;;;5079605;28;20436;-56
2022/02/05 00:56:09;;;;;;;9.90;8.10;;;3.40;99.90;;;;;;5079880;28;20522;-58
2022/02/05 00:58:39;;;;;;;10.00;8.30;;;3.40;99.90;;;;;;5079637;28;20565;-58
2022/02/05 01:01:07;;;;;;;11.23;8.27;;;3.50;99.90;;;;;;5079448;28;20449;-59
2022/02/05 01:03:35;;;;;;;10.00;7.83;;;3.50;99.90;;;;;;5079710;28;20949;-58
2022/02/05 01:06:02;;;;;;;15.10;8.40;;;3.50;99.90;;;;;;5079707;28;20881;-58
2022/02/05 01:08:32;;;;;;;17.40;8.53;;;3.50;99.90;;;;;;5079207;28;20461;-57
2022/02/05 01:11:01;;;;;;;8.03;7.23;;;3.50;99.90;;;;;;5080133;28;20465;-57
2022/02/05 01:13:32;;;;;;;13.77;7.80;;;3.50;99.90;;;;;;5078733;28;20440;-58
2022/02/05 01:16:06;;;;;;;11.07;6.90;;;3.50;99.90;;;;;;5079538;28;20493;-59
2022/02/05 01:18:39;;;;;;;9.80;7.70;;;3.50;99.90;;;;;;5079015;28;20469;-59
2022/02/05 01:21:13;;;;;;;10.37;7.70;;;3.50;99.90;;;;;;5079784;28;20495;-58
2022/02/05 01:23:45;;;;;;;10.50;7.33;;;3.50;99.90;;;;;;5079608;28;20465;-58
2022/02/05 01:26:21;;;;;;;14.53;7.73;;;3.50;99.90;;;;;;5079194;28;20461;-57
2022/02/05 01:28:54;;;;;;;11.50;7.60;;;3.40;99.90;;;;;;5078355;28;20463;-58
2022/02/05 01:31:27;;;;;;;11.40;7.27;;;3.40;99.90;;;;;;5079136;28;20514;-58
2022/02/05 01:34:04;;;;;;;12.03;6.70;;;3.40;99.90;;;;;;5078748;28;20918;-59
2022/02/05 01:48:52;;;;;;;10.20;6.50;;;3.20;99.90;;;;;;5053459;28;20762;-56
2022/02/05 01:50:56;;;;;;;10.20;6.50;;;3.20;99.90;;;;;;5078671;28;20758;-56
2022/02/05 01:53:37;;;;;;;9.30;6.80;;;3.10;99.90;;;;;;5078708;28;20733;-58
2022/02/05 01:56:27;;;;;;;8.03;5.83;;;3.10;99.90;;;;;;5078008;28;20512;-59
2022/02/05 01:59:12;;;;;;;11.60;5.80;;;3.20;99.90;;;;;;5078149;28;20440;-57
2022/02/05 02:13:14;;;;;;;13.23;6.47;;;3.30;99.90;;;;;;5063703;28;20449;-59
2022/02/05 02:15:48;;;;;;;11.27;5.83;;;3.30;99.90;;;;;;5077989;28;20496;-60
2022/02/05 02:18:26;;;;;;;11.97;6.23;;;3.30;99.90;;;;;;5078481;28;20845;-60
2022/02/05 02:21:08;;;;;;;11.07;6.40;;;3.40;99.90;;;;;;5077761;28;20443;-59
2022/02/05 02:23:50;;;;;;;9.87;5.70;;;3.40;99.90;;;;;;5077588;28;20448;-59
2022/02/05 02:26:30;;;;;;;8.47;5.63;;;3.40;99.90;;;;;;5078104;28;20443;-59
2022/02/05 02:29:03;;;;;;;13.47;6.10;;;3.50;99.90;;;;;;5078387;28;20469;-58
2022/02/05 02:31:35;;;;;;;11.27;6.30;;;3.40;99.90;;;;;;5077262;28;20465;-57
2022/02/05 02:34:06;;;;;;;11.20;6.30;;;3.30;99.90;;;;;;5077774;28;20603;-59
2022/02/05 02:36:37;;;;;;;11.57;5.43;;;3.30;99.90;;;;;;5090437;28;20463;-60
2022/02/05 02:39:10;;;;;;;14.77;6.33;;;3.20;99.90;;;;;;5098343;28;20563;-59
2022/02/05 02:41:44;;;;;;;11.10;5.20;;;3.20;99.90;;;;;;5090024;28;20466;-58
2022/02/05 02:44:12;;;;;;;19.20;6.30;;;3.20;99.90;;;;;;5077947;28;20468;-55
2022/02/05 02:46:39;;;;;;;13.20;6.87;;;3.10;99.90;;;;;;5077514;28;20432;-58
2022/02/05 02:49:15;;;;;;;9.93;6.23;;;3.10;99.90;;;;;;5078062;28;20457;-59
2022/02/05 02:57:19;;;;;;;10.40;5.90;;;3.00;99.90;;;;;;5077425;28;21348;-56
2022/02/05 02:59:55;;;;;;;13.57;6.13;;;3.00;99.90;;;;;;5076946;28;20567;-58
2022/02/05 03:02:25;;;;;;;11.40;5.87;;;3.00;99.90;;;;;;5057937;28;20462;-60
2022/02/05 03:04:54;;;;;;;10.90;5.23;;;3.00;99.90;;;;;;5064720;28;20435;-59
2022/02/05 03:07:27;;;;;;;17.70;7.03;;;3.00;99.90;;;;;;5077325;28;20465;-58
2022/02/05 03:09:56;;;;;;;9.27;5.33;;;3.10;99.90;;;;;;5077509;28;20526;-59
2022/02/05 03:12:25;;;;;;;9.33;5.43;;;3.10;99.90;;;;;;5076620;28;20457;-59
2022/02/05 03:14:55;;;;;;;9.70;5.33;;;3.00;99.90;;;;;;5076735;28;20461;-59
2022/02/05 03:17:31;;;;;;;11.13;5.30;;;3.10;99.90;;;;;;5076807;28;20971;-59
2022/02/05 03:19:58;;;;;;;8.60;5.10;;;3.00;99.90;;;;;;5077052;28;20853;-56
2022/02/05 03:22:26;;;;;;;12.93;6.10;;;3.00;99.90;;;;;;5076719;28;20437;-55
2022/02/05 03:24:53;;;;;;;11.50;6.10;;;3.10;99.90;;;;;;5077737;28;20870;-58
2022/02/05 03:27:23;;;;;;;8.70;4.63;;;3.00;99.90;;;;;;5076987;28;20531;-60
2022/02/05 03:29:51;;;;;;;17.87;5.83;;;3.10;99.90;;;;;;5076934;28;20511;-55
2022/02/05 03:32:21;;;;;;;19.23;5.63;;;3.10;99.90;;;;;;5076700;28;20462;-59
2022/02/05 03:34:49;;;;;;;9.33;5.10;;;3.10;99.90;;;;;;5077225;28;20470;-60
2022/02/05 03:37:18;;;;;;;10.10;4.80;;;3.00;99.90;;;;;;5076311;28;20735;-58
2022/02/05 03:39:45;;;;;;;8.87;5.30;;;3.10;99.90;;;;;;5077152;28;20462;-59
2022/02/05 03:42:12;;;;;;;9.73;5.43;;;3.10;99.90;;;;;;5076364;28;20453;-56
2022/02/05 03:44:43;;;;;;;8.90;4.90;;;3.10;99.90;;;;;;5077094;28;20488;-58
2022/02/05 03:47:10;;;;;;;13.17;5.13;;;3.10;99.90;;;;;;5077000;28;20428;-57
2022/02/05 03:49:37;;;;;;;14.23;5.40;;;3.00;99.90;;;;;;5077213;28;20456;-60
2022/02/05 03:52:04;;;;;;;12.67;5.37;;;3.00;99.90;;;;;;5076281;28;20467;-59
2022/02/05 03:54:38;;;;;;;10.07;4.83;;;3.00;99.90;;;;;;5076657;28;20431;-56
2022/02/05 03:57:06;;;;;;;16.67;5.43;;;3.00;99.90;;;;;;5077058;28;20881;-61
2022/02/05 03:59:36;;;;;;;10.57;4.57;;;3.00;99.90;;;;;;5076517;28;20465;-60
2022/02/05 04:02:05;;;;;;;8.47;5.30;;;3.00;99.90;;;;;;5077086;28;20897;-56
2022/02/05 04:04:35;;;;;;;10.27;5.93;;;3.00;99.90;;;;;;5076313;28;20724;-59
2022/02/05 04:07:03;;;;;;;9.93;4.73;;;3.00;99.90;;;;;;5076824;28;20586;-59
2022/02/05 04:09:36;;;;;;;14.57;5.83;;;3.00;99.90;;;;;;5076073;28;20465;-59
2022/02/05 04:17:31;;;;;;;12.00;5.00;;;3.10;99.90;;;;;;5076341;28;20728;-55
2022/02/05 04:19:58;;;;;;;11.10;4.73;;;3.10;99.90;;;;;;5076766;28;20457;-58
2022/02/05 04:22:25;;;;;;;7.67;3.73;;;3.10;99.90;;;;;;5079461;28;20484;-56
2022/02/05 04:24:52;;;;;;;9.33;3.90;;;3.10;99.90;;;;;;5080261;28;20534;-59
2022/02/05 04:27:19;;;;;;;9.53;4.43;;;3.10;99.90;;;;;;5080334;28;20457;-59
2022/02/05 04:29:46;;;;;;;7.50;4.50;;;3.10;99.90;;;;;;5079841;28;20931;-60
2022/02/05 04:32:14;;;;;;;10.77;4.70;;;3.20;99.90;;;;;;5080304;28;20431;-60
2022/02/05 04:34:43;;;;;;;10.10;4.57;;;3.10;99.90;;;;;;5079411;28;20452;-59
2022/02/05 04:37:10;;;;;;;11.50;4.40;;;3.10;99.90;;;;;;5098504;28;20484;-57
2022/02/05 04:39:43;;;;;;;12.03;4.63;;;3.10;99.90;;;;;;5089732;28;20515;-58
2022/02/05 04:42:16;;;;;;;15.40;4.77;;;3.10;99.90;;;;;;5080461;28;20492;-56
2022/02/05 04:45:05;;;;;;;13.40;4.40;;;3.10;99.90;;;;;;5079784;28;21077;-58
2022/02/05 04:47:55;;;;;;;8.50;3.53;;;3.10;99.90;;;;;;5079861;28;20500;-58
2022/02/05 04:50:41;;;;;;;8.77;4.30;;;3.10;99.90;;;;;;5080204;28;20815;-58
2022/02/05 04:53:22;;;;;;;13.10;4.20;;;3.10;99.90;;;;;;5080622;28;20440;-59
2022/02/05 04:56:15;;;;;;;9.13;4.90;;;3.10;99.90;;;;;;5079097;28;20491;-59
2022/02/05 04:59:08;;;;;;;11.77;5.10;;;3.00;99.90;;;;;;5080406;28;20476;-59
2022/02/05 05:01:48;;;;;;;6.47;4.67;;;3.00;99.90;;;;;;5079638;28;20473;-59
2022/02/05 05:04:26;;;;;;;9.33;4.50;;;3.10;99.90;;;;;;5080079;28;20465;-55
2022/02/05 05:09:59;;;;;;;8.57;4.40;;;3.00;99.90;;;;;;5017351;28;20427;-60
2022/02/05 05:12:36;;;;;;;13.07;4.33;;;3.00;99.90;;;;;;5017855;28;20437;-58
2022/02/05 05:15:25;;;;;;;12.20;4.60;;;3.00;99.90;;;;;;5017608;28;20870;-60
2022/02/05 05:20:40;;;;;;;8.50;4.60;;;3.10;99.90;;;;;;5036595;28;20440;-60
2022/02/05 05:23:08;;;;;;;13.00;4.87;;;3.00;99.90;;;;;;5079832;28;20555;-57
2022/02/05 05:25:35;;;;;;;12.93;4.87;;;3.00;99.90;;;;;;5079288;28;20469;-60
2022/02/05 05:28:03;;;;;;;10.87;4.40;;;3.10;99.90;;;;;;5077684;28;20489;-58
2022/02/05 05:30:30;;;;;;;10.33;4.10;;;3.10;99.90;;;;;;5079002;28;20790;-59
2022/02/05 05:32:57;;;;;;;12.60;4.97;;;3.10;99.90;;;;;;5079321;28;20518;-56
2022/02/05 05:35:24;;;;;;;8.73;4.73;;;3.10;99.90;;;;;;5082114;28;20480;-57
2022/02/05 05:37:54;;;;;;;12.00;5.27;;;3.20;99.90;;;;;;5081786;28;20465;-58
2022/02/05 05:40:23;;;;;;;11.40;4.97;;;3.10;99.90;;;;;;5079366;28;20894;-57
2022/02/05 05:42:59;;;;;;;7.13;5.07;;;3.10;99.90;;;;;;5079418;28;20457;-59
2022/02/05 05:45:38;;;;;;;9.73;5.10;;;3.10;99.90;;;;;;5078952;28;20467;-58
2022/02/05 05:48:09;;;;;;;12.03;4.67;;;3.20;99.90;;;;;;5078320;28;20465;-59
2022/02/05 05:50:58;;;;;;;10.20;5.00;;;3.10;99.90;;;;;;5079391;28;20440;-60
2022/02/05 05:53:27;;;;;;;8.30;5.20;;;3.10;99.90;;;;;;5058746;28;20512;-60
2022/02/05 05:55:57;;;;;;;11.53;5.43;;;3.10;99.90;;;;;;5058805;28;20490;-60
2022/02/05 05:58:25;;;;;;;9.10;4.93;;;3.00;99.90;;;;;;5072156;28;20835;-58
2022/02/05 06:00:52;;;;;;;8.70;4.83;;;3.00;99.90;;;;;;5078919;28;20464;-59
2022/02/05 06:03:19;;;;;;;9.47;5.80;;;3.00;99.90;;;;;;5077843;28;20555;-59
2022/02/05 06:05:47;;;;;;;19.33;4.97;;;3.00;99.90;;;;;;5078668;28;20461;-58
2022/02/05 06:08:15;;;;;;;13.77;4.87;;;3.00;99.90;;;;;;5077883;28;20435;-56
2022/02/05 06:10:43;;;;;;;8.70;4.67;;;2.90;99.90;;;;;;5078195;28;20458;-58
2022/02/05 06:13:13;;;;;;;12.07;5.47;;;3.00;99.90;;;;;;5078755;28;20501;-60
2022/02/05 06:15:41;;;;;;;10.90;5.90;;;3.00;99.90;;;;;;5078241;28;20461;-59
2022/02/05 06:18:09;;;;;;;7.77;4.73;;;3.00;99.90;;;;;;5078419;28;20766;-60
2022/02/05 06:20:37;;;;;;;13.90;4.77;;;3.10;99.90;;;;;;5076869;28;20465;-60
2022/02/05 06:23:04;;;;;;;16.17;5.60;;;3.10;99.90;;;;;;5078411;28;20893;-60
2022/02/05 06:25:33;;;;;;;10.37;5.00;;;3.10;99.90;;;;;;5076296;28;20496;-58
2022/02/05 06:28:02;;;;;;;12.43;5.40;;;3.10;99.90;;;;;;5077710;28;20534;-60
2022/02/05 06:30:31;;;;;;;9.93;5.17;;;3.10;99.90;;;;;;5073728;28;20892;-57
2022/02/05 06:32:58;;;;;;;11.53;5.07;;;3.10;99.90;;;;;;5076128;28;20439;-59
2022/02/05 06:35:25;;;;;;;11.97;5.20;;;3.10;99.90;;;;;;5076196;28;20795;-59
2022/02/05 06:37:52;;;;;;;15.67;5.73;;;3.10;99.90;;;;;;5078167;28;20762;-62
2022/02/05 06:40:19;;;;;;;11.50;5.00;;;3.20;99.90;;;;;;5077828;28;20465;-62
2022/02/05 06:42:46;;;;;;;9.47;4.90;;;3.20;99.90;;;;;;5078215;28;20443;-62
2022/02/05 06:45:14;;;;;;;11.03;4.80;;;3.10;99.90;;;;;;5076727;28;20554;-62
2022/02/05 06:47:43;;;;;;;9.30;4.77;;;3.20;99.90;;;;;;5077714;28;20453;-62
2022/02/05 06:50:11;;;;;;;9.60;4.27;;;3.20;99.90;;;;;;5077685;28;20873;-62
2022/02/05 06:52:38;;;;;;;12.67;6.03;;;3.10;99.90;;;;;;5078270;28;20507;-62
2022/02/05 06:55:07;;;;;;;16.00;5.10;;;3.20;99.90;;;;;;5077700;28;20457;-62
2022/02/05 06:57:35;;;;;;;12.27;5.50;;;3.20;99.90;;;;;;5076722;28;20945;-62
2022/02/05 07:00:02;;;;;;;8.20;5.30;;;3.10;99.90;;;;;;5075982;28;20879;-62
2022/02/05 07:02:31;;;;;;;10.27;4.37;;;3.20;99.90;;;;;;5076398;28;20468;-62
2022/02/05 07:05:00;;;;;;;11.73;5.77;;;3.20;99.90;;;;;;5077276;28;20461;-62
2022/02/05 07:07:27;;;;;;;15.60;5.90;;;3.20;99.90;;;;;;5076578;28;20507;-62
2022/02/05 07:09:55;;;;;;;11.33;4.40;;;3.20;99.90;;;;;;5077492;28;20461;-62
2022/02/05 07:12:22;;;;;;;17.10;6.60;;;3.20;99.90;;;;;;5077970;28;20474;-62
2022/02/05 07:15:00;;;;;;;14.70;5.50;;;3.10;99.90;;;;;;5077735;28;20472;-62
2022/02/05 07:17:36;;;;;;;12.30;5.27;;;3.20;99.90;;;;;;5076950;28;20592;-62
2022/02/05 07:20:13;;;;;;;11.40;5.70;;;3.10;99.90;;;;;;5077873;28;20518;-62
2022/02/05 07:22:54;;;;;;;13.50;5.23;;;3.20;99.90;;;;;;5078234;28;20461;-62
2022/02/05 07:30:51;;;;;;;13.17;4.90;;;3.20;99.90;;;;;;5077531;28;20996;-62
2022/02/05 07:33:18;;;;;;;14.83;6.63;;;3.20;99.90;;;;;;5077625;28;20495;-62
2022/02/05 07:35:49;;;;;;;12.07;5.07;;;3.20;99.90;;;;;;5076980;28;20485;-62
2022/02/05 07:38:15;;;;;;;11.43;4.67;;;3.20;99.90;;;;;;5077798;28;20930;-62
2022/02/05 07:40:43;;;;;;;9.70;5.33;;;3.20;99.90;;;;;;5077682;28;20491;-62
2022/02/05 07:43:09;;;;;;;9.67;4.80;;;3.20;99.90;;;;;;5077830;28;20461;-62
2022/02/05 07:45:37;;;;;;;12.93;4.80;;;3.30;99.90;;;;;;5077549;28;20461;-62
2022/02/05 07:48:07;;;;;;;9.50;4.63;;;3.30;99.90;;;;;;5077044;28;20461;-62
2022/02/05 07:50:35;;;;;;;14.37;6.70;;;3.30;99.90;;;;;;5077490;28;20457;-62
2022/02/05 07:53:03;;;;;;;5.63;4.17;;;3.30;99.90;;;;;;5077586;28;20461;-63
2022/02/05 07:55:30;;;;;;;13.93;5.13;;;3.30;99.90;;;;;;5077245;28;20470;-62
2022/02/05 07:57:57;;;;;;;9.83;4.90;;;3.30;99.90;;;;;;5080955;28;20539;-62
2022/02/05 08:00:24;;;;;;;9.60;5.37;;;3.30;99.90;;;;;;5081457;28;20518;-62
2022/02/05 08:02:52;;;;;;;15.47;4.57;;;3.30;99.90;;;;;;5081417;28;20460;-62
2022/02/05 08:05:29;;;;;;;8.97;4.60;;;3.40;99.90;;;;;;5081281;28;20764;-62
2022/02/05 08:07:57;;;;;;;9.90;4.20;;;3.40;99.90;;;;;;5081032;28;20466;-62
2022/02/05 08:10:30;;;;;;;9.20;3.97;;;3.40;99.90;;;;;;5081178;28;20468;-62
2022/02/05 08:12:59;;;;;;;10.50;5.17;;;3.40;99.90;;;;;;5081572;28;20538;-62
2022/02/05 08:15:28;;;;;;;15.17;6.30;;;3.40;99.90;;;;;;5080854;28;20465;-62
2022/02/05 08:17:56;;;;;;;8.90;4.83;;;3.40;99.90;;;;;;5080446;28;20489;-62
2022/02/05 08:20:23;;;;;;;11.60;5.17;;;3.40;99.90;;;;;;5080900;28;20769;-62
2022/02/05 08:22:51;;;;;;;7.80;4.90;;;3.50;99.90;;;;;;5080574;28;20461;-62
2022/02/05 08:25:18;;;;;;;14.23;5.67;;;3.50;99.90;;;;;;5081167;28;20493;-62
2022/02/05 08:27:49;;;;;;;10.50;5.20;;;3.50;99.90;;;;;;5080851;28;20452;-62
2022/02/05 08:30:16;;;;;;;21.30;5.70;;;3.60;99.90;;;;;;5080903;28;20468;-62
2022/02/05 08:32:49;;;;;;;9.43;5.10;;;3.70;99.90;;;;;;5080438;28;20511;-62
2022/02/05 08:35:20;;;;;;;8.93;4.90;;;3.60;99.90;;;;;;5081222;28;20484;-62
2022/02/05 08:37:49;;;;;;;11.40;4.57;;;3.60;99.90;;;;;;5099552;28;20492;-62
2022/02/05 08:40:16;;;;;;;15.30;5.40;;;3.60;99.90;;;;;;5101289;28;20470;-62
2022/02/05 08:42:43;;;;;;;13.43;4.77;;;3.70;99.90;;;;;;5100749;28;20520;-62
2022/02/05 08:45:12;;;;;;;9.30;5.00;;;3.60;99.90;;;;;;5101528;28;20435;-62
2022/02/05 08:47:41;;;;;;;12.80;5.53;;;3.60;99.90;;;;;;5101209;28;20460;-63
2022/02/05 08:50:11;;;;;;;10.87;4.77;;;3.70;99.90;;;;;;5101095;28;20456;-63
2022/02/05 08:52:40;;;;;;;11.20;5.30;;;3.70;99.90;;;;;;5100881;28;20831;-63
2022/02/05 08:55:09;;;;;;;12.00;4.67;;;3.70;99.90;;;;;;5100893;28;20900;-62
2022/02/05 08:57:39;;;;;;;10.83;5.60;;;3.70;99.90;;;;;;5100304;28;20993;-63
2022/02/05 09:00:15;;;;;;;15.30;5.40;;;3.70;99.90;;;;;;5100488;28;20474;-62
2022/02/05 09:02:54;;;;;;;15.57;5.80;;;3.80;99.90;;;;;;5100513;28;20734;-62
2022/02/05 09:05:33;;;;;;;10.37;4.67;;;3.70;99.90;;;;;;5083966;28;20465;-63
2022/02/05 09:08:08;;;;;;;11.03;5.77;;;3.80;99.90;;;;;;5076065;28;20476;-63
2022/02/05 09:10:49;;;;;;;16.97;5.00;;;3.80;99.90;;;;;;5079572;28;20449;-63
2022/02/05 09:13:37;;;;;;;17.83;5.87;;;3.80;99.90;;;;;;5079122;28;20464;-63
2022/02/05 09:16:08;;;;;;;9.03;5.00;;;3.80;99.90;;;;;;5077581;28;20480;-63
2022/02/05 09:18:36;;;;;;;11.17;5.60;;;3.90;99.90;;;;;;5079098;28;20485;-62
2022/02/05 09:21:04;;;;;;;12.10;5.97;;;3.90;99.90;;;;;;5078949;28;20519;-63
2022/02/05 09:23:33;;;;;;;10.03;4.97;;;3.80;99.90;;;;;;5079603;28;20469;-63
2022/02/05 09:26:01;;;;;;;12.10;5.87;;;3.90;99.90;;;;;;5079646;28;20461;-62
2022/02/05 09:28:29;;;;;;;12.70;6.27;;;3.90;99.90;;;;;;5079440;28;20461;-62
2022/02/05 09:33:40;;;;;;;10.80;5.60;;;4.00;99.90;;;;;;5070475;28;20440;-63
2022/02/05 09:36:08;;;;;;;11.87;5.47;;;4.10;99.90;;;;;;5079031;28;20485;-63
2022/02/05 09:38:36;;;;;;;13.00;4.90;;;4.10;99.90;;;;;;5079729;28;20493;-63
2022/02/05 09:41:03;;;;;;;16.97;6.40;;;4.20;99.90;;;;;;5079564;28;20465;-63
2022/02/05 09:43:31;;;;;;;12.20;5.37;;;4.20;99.90;;;;;;5079598;28;20527;-62
2022/02/05 09:45:59;;;;;;;8.93;5.00;;;4.20;99.90;;;;;;5078878;28;20503;-62
2022/02/05 09:48:29;;;;;;;8.40;5.27;;;4.20;99.90;;;;;;5077919;28;20929;-63
2022/02/05 09:51:04;;;;;;;14.67;6.03;;;4.20;99.90;;;;;;5077834;28;20461;-63
2022/02/05 09:53:31;;;;;;;10.97;6.00;;;4.20;99.90;;;;;;5078347;28;20462;-63
2022/02/05 09:56:01;;;;;;;12.50;5.10;;;4.20;99.90;;;;;;5077844;28;20469;-63
2022/02/05 09:58:28;;;;;;;12.00;5.53;;;4.30;99.90;;;;;;5078234;28;20493;-63
2022/02/05 10:01:03;;;;;;;8.60;4.53;;;4.30;99.90;;;;;;5078928;28;20465;-63
2022/02/05 10:03:33;;;;;;;10.93;4.63;;;4.40;99.90;;;;;;5078438;28;20468;-63
2022/02/05 10:06:09;;;;;;;9.40;5.27;;;4.50;99.90;;;;;;5078402;28;20966;-63
2022/02/05 10:08:38;;;;;;;16.43;5.67;;;4.50;99.90;;;;;;5079034;28;20457;-62
2022/02/05 10:11:06;;;;;;;11.07;5.33;;;4.50;99.90;;;;;;5079071;28;20439;-63
2022/02/05 10:13:34;;;;;;;10.37;5.80;;;4.60;99.90;;;;;;5078306;28;20778;-63
2022/02/05 10:16:04;;;;;;;11.37;5.60;;;4.60;99.90;;;;;;5078446;28;20440;-63
2022/02/05 10:18:34;;;;;;;11.50;6.60;;;4.60;99.90;;;;;;5078505;28;21003;-63
2022/02/05 10:21:04;;;;;;;9.30;4.90;;;4.70;99.90;;;;;;5078422;28;20461;-62
2022/02/05 10:23:32;;;;;;;10.80;5.53;;;4.90;99.90;;;;;;5078443;28;20489;-63
2022/02/05 10:25:59;;;;;;;15.07;6.90;;;4.90;99.90;;;;;;5078885;28;20432;-62
2022/02/05 10:28:27;;;;;;;13.80;5.23;;;5.00;99.90;;;;;;5078322;28;20469;-62
2022/02/05 10:31:02;;;;;;;10.43;5.40;;;5.00;99.90;;;;;;5076966;28;20469;-62
2022/02/05 10:33:32;;;;;;;11.13;5.23;;;5.30;99.90;;;;;;5087813;28;20508;-62
2022/02/05 10:36:05;;;;;;;13.37;6.47;;;5.60;99.90;;;;;;5083463;28;20471;-63
2022/02/05 10:38:53;;;;;;;10.10;5.00;;;5.70;99.90;;;;;;5077918;28;20468;-63
2022/02/05 10:44:14;;;;;;;12.00;5.40;;;5.70;93.60;;;;;;5077575;28;20432;-62
2022/02/05 10:46:44;;;;;;;12.60;4.93;;;5.50;1.00;;;;;;5078006;28;20431;-62
2022/02/05 10:49:12;;;;;;;10.53;4.40;;;5.50;1.00;;;;;;5077584;28;20868;-62
2022/02/05 10:51:42;;;;;;;11.93;5.43;;;5.50;1.00;;;;;;5077657;28;20432;-62
2022/02/05 10:54:20;;;;;;;8.30;4.30;;;5.70;1.00;;;;;;5077376;28;20428;-62
2022/02/05 10:57:09;;;;;;;8.63;5.00;;;6.10;1.00;;;;;;5077670;28;20475;-62
2022/02/05 11:05:10;;;;;;;12.53;6.27;;;5.90;99.90;;;;;;5077168;28;20916;-62
2022/02/05 11:05:42;;;;;;;8.73;4.50;;;6.50;99.90;;;;;;5077167;28;20408;-62
2022/02/05 11:08:09;;;;;;;12.83;4.57;;;6.00;99.90;;;;;;5077764;28;20497;-62
2022/02/05 11:18:56;;;;;;;10.77;5.23;;;5.90;99.90;;;;;;5030948;28;20465;-61
2022/02/05 11:21:29;;;;;;;11.70;5.03;;;6.00;99.90;;;;;;5076220;28;20563;-61
2022/02/05 11:23:59;;;;;;;8.53;4.53;;;5.70;99.90;;;;;;5076943;28;20526;-60
2022/02/05 11:26:34;;;;;;;8.30;4.67;;;5.50;99.90;;;;;;5076836;28;20461;-61
2022/02/05 11:29:04;;;;;;;14.30;4.77;;;5.50;99.90;;;;;;5077311;28;20456;-59
2022/02/05 11:31:35;;;;;;;7.67;4.00;;;5.50;99.90;;;;;;5077127;28;20465;-61
2022/02/05 11:34:21;;;;;;;11.50;4.40;;;5.40;99.90;;;;;;5076648;28;20519;-61
2022/02/05 11:37:05;;;;;;;15.73;5.17;;;5.80;99.90;;;;;;5092028;28;20467;-61
2022/02/05 11:39:48;;;;;;;7.93;4.80;;;6.10;77.70;;;;;;5097456;28;20492;-62
2022/02/05 11:42:31;;;;;;;12.63;5.27;;;6.10;53.70;;;;;;5097705;28;20460;-62
2022/02/05 11:45:22;;;;;;;11.60;4.60;;;6.50;1.00;;;;;;5097365;28;20460;-60
2022/02/05 11:47:53;;;;;;;10.07;4.60;;;6.30;1.00;;;;;;5096617;28;20456;-61
2022/02/05 11:50:25;;;;;;;10.30;4.50;;;5.90;1.00;;;;;;5097174;28;20789;-62
2022/02/05 11:53:10;;;;;;;9.33;4.60;;;5.70;1.00;;;;;;5076882;28;20466;-60
2022/02/05 11:55:42;;;;;;;8.20;4.20;;;5.60;1.00;;;;;;5077057;28;20518;-61
2022/02/05 11:58:16;;;;;;;9.27;4.13;;;5.40;1.00;;;;;;5077111;28;20924;-61
2022/02/05 12:00:56;;;;;;;13.57;4.50;;;5.30;1.00;;;;;;5076382;28;20465;-61
2022/02/05 12:03:32;;;;;;;9.93;5.00;;;5.30;1.00;;;;;;5075543;28;20532;-58
2022/02/05 12:06:09;;;;;;;9.20;5.73;;;5.80;1.00;;;;;;5075667;28;20493;-61
2022/02/05 12:08:40;;;;;;;12.93;4.37;;;6.20;1.00;;;;;;5055434;28;20463;-60
2022/02/05 12:11:34;;;;;;;12.43;4.10;;;6.60;1.00;;;;;;5070976;28;20435;-60
2022/02/05 12:14:13;;;;;;;10.60;4.17;;;6.70;1.00;;;;;;5076127;28;20492;-61
2022/02/05 12:16:43;;;;;;;8.73;4.70;;;6.70;1.00;;;;;;5076674;28;20468;-58
2022/02/05 12:19:15;;;;;;;10.37;4.20;;;6.60;1.00;;;;;;5076656;28;20474;-60
2022/02/05 12:21:53;;;;;;;8.37;4.23;;;6.70;1.00;;;;;;5076106;28;20440;-60
2022/02/05 12:26:55;;;;;;;7.53;3.87;;;6.80;1.00;;;;;;5075536;28;20421;-59
2022/02/05 12:29:31;;;;;;;8.37;5.00;;;7.10;1.00;;;;;;5073651;28;20453;-57
2022/02/05 12:32:01;;;;;;;10.20;4.90;;;7.40;1.00;;;;;;5074551;28;20487;-59
2022/02/05 12:34:39;;;;;;;7.07;3.43;;;7.30;1.00;;;;;;5074805;28;20485;-57
2022/02/05 12:37:09;;;;;;;10.60;4.90;;;7.40;1.00;;;;;;5074625;28;20461;-58
2022/02/05 12:39:38;;;;;;;8.60;4.17;;;7.40;1.00;;;;;;5075354;28;20492;-58
2022/02/05 12:42:13;;;;;;;11.07;4.07;;;7.50;1.00;;;;;;5076895;28;20465;-61
2022/02/05 12:44:41;;;;;;;7.97;4.50;;;7.70;1.00;;;;;;5079703;28;20442;-59
2022/02/05 12:47:15;;;;;;;12.20;4.60;;;7.70;1.00;;;;;;5076613;28;20475;-60
2022/02/05 12:49:51;;;;;;;9.33;3.97;;;7.60;1.00;;;;;;5078431;28;20460;-58
2022/02/05 12:52:24;;;;;;;6.57;4.43;;;7.30;1.00;;;;;;5078286;28;20464;-56
2022/02/05 12:54:56;;;;;;;15.73;4.53;;;7.20;1.00;;;;;;5078392;28;20933;-60
2022/02/05 12:57:23;;;;;;;6.47;4.30;;;7.40;1.00;;;;;;5077974;28;20495;-59
2022/02/05 12:59:53;;;;;;;8.67;3.90;;;7.20;1.00;;;;;;5078734;28;20496;-57
2022/02/05 13:02:21;;;;;;;8.10;5.03;;;6.90;1.00;;;;;;5079245;28;20461;-60
2022/02/05 13:04:55;;;;;;;7.77;4.23;;;7.00;1.00;;;;;;5079626;28;20500;-54
2022/02/05 13:07:29;;;;;;;8.43;4.37;;;7.20;1.00;;;;;;5078936;28;20461;-56
2022/02/05 13:09:58;;;;;;;6.53;4.03;;;7.60;1.00;;;;;;5079497;28;20526;-53
2022/02/05 13:12:32;;;;;;;7.37;3.90;;;7.80;1.00;;;;;;5078834;28;20465;-55
2022/02/05 13:15:02;;;;;;;7.43;3.93;;;8.00;1.00;;;;;;5079115;28;20468;-56
2022/02/05 13:17:39;;;;;;;6.47;3.73;;;8.10;1.00;;;;;;5078547;28;20469;-54
2022/02/05 13:20:26;;;;;;;5.30;3.60;;;8.20;1.00;;;;;;5079352;28;20936;-57
2022/02/05 13:25:49;;;;;;;5.63;3.40;;;8.40;1.00;;;;;;5078776;28;20436;-53
2022/02/05 13:28:44;;;;;;;6.20;3.90;;;8.40;1.00;;;;;;5078569;28;20861;-55
2022/02/05 13:34:06;;;;;;;8.97;4.10;;;8.30;1.00;;;;;;5078252;28;20448;-54
2022/02/05 13:36:44;;;;;;;9.40;4.10;;;8.30;1.00;;;;;;5079188;28;20461;-54
2022/02/05 13:39:27;;;;;;;9.23;3.67;;;8.30;1.00;;;;;;5077998;28;20493;-55
2022/02/05 13:42:00;;;;;;;7.03;3.57;;;7.90;1.00;;;;;;5078659;28;20457;-52
2022/02/05 13:44:41;;;;;;;10.80;3.70;;;7.90;1.00;;;;;;5078894;28;20572;-54
2022/02/05 13:47:11;;;;;;;8.40;4.00;;;8.10;1.00;;;;;;5079057;28;20955;-52
2022/02/05 13:49:39;;;;;;;7.43;4.13;;;8.00;1.00;;;;;;5078043;28;20453;-54
2022/02/05 13:52:14;;;;;;;5.73;3.40;;;8.10;1.00;;;;;;5078417;28;20465;-56
2022/02/05 13:54:43;;;;;;;7.40;3.50;;;7.80;1.00;;;;;;5068493;28;20874;-56
2022/02/05 13:57:15;;;;;;;7.03;3.30;;;7.20;1.00;;;;;;5078852;28;20435;-59
2022/02/05 13:59:45;;;;;;;9.57;4.10;;;7.20;1.00;;;;;;5077840;28;20961;-56
2022/02/05 14:02:16;;;;;;;6.77;3.40;;;7.10;1.00;;;;;;5078003;28;20806;-55
2022/02/05 14:04:46;;;;;;;6.03;3.23;;;7.30;1.00;;;;;;5076592;28;20461;-57
2022/02/05 14:07:17;;;;;;;10.23;3.60;;;7.40;1.00;;;;;;5077860;28;20461;-54
2022/02/05 14:09:46;;;;;;;5.43;3.27;;;7.20;1.00;;;;;;5076879;28;20458;-55
2022/02/05 14:12:15;;;;;;;4.70;3.37;;;7.30;1.00;;;;;;5078278;28;20461;-56
2022/02/05 14:14:42;;;;;;;8.40;3.43;;;7.50;1.00;;;;;;5078270;28;20819;-56
2022/02/05 14:17:17;;;;;;;6.27;3.23;;;7.40;1.00;;;;;;5078467;28;20464;-57
2022/02/05 14:19:44;;;;;;;5.83;3.83;;;7.60;1.00;;;;;;5076273;28;20499;-58
2022/02/05 14:22:22;;;;;;;8.27;5.33;;;7.50;1.00;;;;;;5077499;28;20905;-56
2022/02/05 14:25:10;;;;;;;10.77;4.27;;;7.40;1.00;;;;;;5077472;28;20510;-54
2022/02/05 14:27:58;;;;;;;10.10;4.90;;;7.10;1.00;;;;;;5077341;28;20906;-54
2022/02/05 14:30:28;;;;;;;9.97;5.13;;;6.80;1.00;;;;;;5077176;28;20539;-55
2022/02/05 14:33:01;;;;;;;14.23;7.00;;;6.80;1.00;;;;;;5076660;28;20471;-56
2022/02/05 14:35:45;;;;;;;14.13;5.90;;;6.70;1.00;;;;;;5076893;28;20459;-57
2022/02/05 14:41:04;;;;;;;14.43;5.57;;;6.50;1.00;;;;;;5077172;28;20561;-55
2022/02/05 14:43:33;;;;;;;5.37;3.70;;;6.60;1.00;;;;;;5077650;28;20469;-56
2022/02/05 14:46:03;;;;;;;8.40;4.97;;;6.70;1.00;;;;;;5077074;28;20457;-58
2022/02/05 14:48:30;;;;;;;13.10;7.80;;;6.70;1.00;;;;;;5077691;28;20461;-57
2022/02/05 14:50:59;;;;;;;8.33;3.50;;;6.80;1.00;;;;;;5077389;28;20817;-55
2022/02/05 14:53:28;;;;;;;12.90;4.27;;;6.90;1.00;;;;;;5076656;28;20551;-55
2022/02/05 14:55:56;;;;;;;9.50;3.80;;;6.90;1.00;;;;;;5077120;28;20522;-55